Time;durP1;ratioP1;P1;durP2;ratioP2;P2;SDS_P1;SDS_P2;PMS_P1;PMS_P2;Temp;Humidity;BMP_temperature;BMP_pressure;BME280_temperature;BME280_humidity;BME280_pressure;Samples;Min_cycle;Max_cycle;Signal;HPM_P1;HPM_P2
2023/07/31 00:01:10;;;;;;;6.22;3.72;;;;;;;16.01;100.00;100740.31;5025945;28;20111;-80
2023/07/31 00:03:38;;;;;;;4.50;3.47;;;;;;;16.01;100.00;100731.44;5022765;28;20046;-80
2023/07/31 00:06:06;;;;;;;4.85;3.65;;;;;;;15.98;100.00;100741.22;5030965;28;20068;-80
2023/07/31 00:08:35;;;;;;;3.67;2.65;;;;;;;15.95;100.00;100727.13;5000434;28;20061;-79
2023/07/31 00:11:03;;;;;;;5.63;3.55;;;;;;;15.93;100.00;100723.63;5007266;28;20052;-79
2023/07/31 00:13:30;;;;;;;5.85;3.30;;;;;;;15.90;100.00;100731.69;5042476;28;20064;-79
2023/07/31 00:15:59;;;;;;;4.35;3.15;;;;;;;15.89;100.00;100727.25;4977888;28;20258;-81
2023/07/31 00:18:26;;;;;;;4.18;3.00;;;;;;;15.87;100.00;100737.91;5035507;28;20046;-80
2023/07/31 00:20:54;;;;;;;4.13;3.35;;;;;;;15.86;100.00;100732.63;4995480;28;20048;-80
2023/07/31 00:23:24;;;;;;;4.78;3.67;;;;;;;15.85;100.00;100731.75;4999509;28;20037;-80
2023/07/31 00:25:51;;;;;;;3.63;3.17;;;;;;;15.83;100.00;100725.59;5009236;28;20057;-79
2023/07/31 00:28:19;;;;;;;5.78;4.13;;;;;;;15.83;100.00;100722.94;5026929;28;20060;-78
2023/07/31 00:30:46;;;;;;;5.25;3.83;;;;;;;15.82;100.00;100726.50;5005575;28;20051;-79
2023/07/31 00:33:14;;;;;;;4.32;3.88;;;;;;;15.83;100.00;100728.25;5009883;28;20056;-79
2023/07/31 00:35:41;;;;;;;7.13;3.90;;;;;;;15.83;100.00;100725.59;5020849;28;20060;-79
2023/07/31 00:38:08;;;;;;;6.75;3.40;;;;;;;15.83;100.00;100730.91;5023222;28;20048;-80
2023/07/31 00:40:39;;;;;;;5.75;3.63;;;;;;;15.82;100.00;100730.94;5019548;28;20072;-80
2023/07/31 00:43:06;;;;;;;;;;;;;;;15.79;100.00;100729.22;5030961;28;20044;-79
2023/07/31 00:45:35;;;;;;;4.18;2.97;;;;;;;15.76;100.00;100718.66;4999507;28;20656;-79
2023/07/31 00:48:02;;;;;;;4.18;3.20;;;;;;;15.78;100.00;100714.19;5019355;28;20053;-79
2023/07/31 00:50:30;;;;;;;3.03;2.83;;;;;;;15.78;100.00;100711.53;5012291;28;20046;-78
2023/07/31 00:52:58;;;;;;;6.00;3.08;;;;;;;15.78;100.00;100716.84;5005069;28;20037;-79
2023/07/31 00:55:26;;;;;;;4.93;2.97;;;;;;;15.78;100.00;100700.91;4991376;28;20050;-79
2023/07/31 00:57:55;;;;;;;3.95;2.90;;;;;;;15.79;100.00;100702.66;5022819;28;20042;-78
2023/07/31 01:00:23;;;;;;;7.18;3.00;;;;;;;15.78;100.00;100699.13;4985824;28;20392;-79
2023/07/31 01:02:51;;;;;;;6.10;3.67;;;;;;;15.78;100.00;100708.88;5003721;28;20050;-79
2023/07/31 01:05:44;;;;;;;6.18;3.65;;;;;;;15.78;100.00;100708.88;5015730;28;20087;-80
2023/07/31 01:08:24;;;;;;;3.28;2.83;;;;;;;15.74;100.00;100709.84;5024226;28;20061;-79
2023/07/31 01:10:59;;;;;;;4.72;3.13;;;;;;;15.71;100.00;100704.56;5014050;28;20422;-80
2023/07/31 01:13:29;;;;;;;4.88;2.90;;;;;;;15.67;100.00;100698.44;5028677;28;20053;-79
2023/07/31 01:15:58;;;;;;;3.70;2.88;;;;;;;15.63;100.00;100695.88;4980930;28;20065;-80
2023/07/31 01:18:26;;;;;;;6.35;3.20;;;;;;;15.59;100.00;100690.63;5024115;28;20056;-78
2023/07/31 01:21:12;;;;;;;6.35;3.63;;;;;;;15.55;100.00;100693.38;5015682;28;20049;-79
2023/07/31 01:23:49;;;;;;;3.83;3.30;;;;;;;15.52;100.00;100685.44;5029814;28;20053;-79
2023/07/31 01:26:23;;;;;;;3.67;3.00;;;;;;;15.50;100.00;100685.50;5023586;28;20053;-80
2023/07/31 01:29:00;;;;;;;3.25;2.92;;;;;;;15.47;100.00;100684.69;5029291;28;20045;-79
2023/07/31 01:31:30;;;;;;;3.50;3.20;;;;;;;15.43;100.00;100693.63;4997685;28;20049;-79
2023/07/31 01:34:01;;;;;;;7.95;3.50;;;;;;;15.38;100.00;100694.56;5031550;28;20509;-81
2023/07/31 01:36:30;;;;;;;12.25;3.00;;;;;;;15.36;100.00;100674.25;5024860;28;20053;-79
2023/07/31 01:39:00;;;;;;;3.10;2.85;;;;;;;15.36;100.00;100685.75;5027251;28;20487;-78
2023/07/31 01:41:27;;;;;;;4.18;3.08;;;;;;;15.38;100.00;100672.44;5035172;28;20050;-80
2023/07/31 01:43:55;;;;;;;3.58;3.28;;;;;;;15.37;100.00;100673.38;5003008;28;20049;-80
2023/07/31 01:46:23;;;;;;;3.55;3.25;;;;;;;15.36;100.00;100674.25;5031236;28;20049;-79
2023/07/31 01:48:51;;;;;;;4.28;3.13;;;;;;;15.34;100.00;100682.25;4991249;28;20068;-80
2023/07/31 01:51:19;;;;;;;3.40;2.95;;;;;;;15.30;100.00;100671.75;5021552;28;20053;-80
2023/07/31 01:53:47;;;;;;;3.40;3.20;;;;;;;15.28;100.00;100673.56;5006385;28;20050;-79
2023/07/31 01:56:14;;;;;;;5.70;3.40;;;;;;;15.29;100.00;100676.19;5024500;28;20057;-79
2023/07/31 01:58:42;;;;;;;3.33;3.00;;;;;;;15.29;100.00;100668.22;5027987;28;20046;-79
2023/07/31 02:01:09;;;;;;;3.60;2.97;;;;;;;15.30;100.00;100655.81;5026153;28;20046;-79
2023/07/31 02:03:37;;;;;;;4.65;2.90;;;;;;;15.31;100.00;100654.88;4984838;28;20046;-79
2023/07/31 02:06:04;;;;;;;3.03;2.83;;;;;;;15.32;100.00;100651.34;5013979;28;20056;-79
2023/07/31 02:08:32;;;;;;;3.67;2.17;;;;;;;15.32;100.00;100660.16;5030944;28;20411;-80
2023/07/31 02:10:59;;;;;;;2.75;2.55;;;;;;;15.31;100.00;100641.63;5019488;28;20057;-78
2023/07/31 02:13:27;;;;;;;3.17;2.72;;;;;;;15.30;100.00;100635.44;5014720;28;20487;-79
2023/07/31 02:15:54;;;;;;;2.97;2.40;;;;;;;15.30;100.00;100646.06;5012034;28;20461;-79
2023/07/31 02:18:22;;;;;;;2.70;2.50;;;;;;;15.32;100.00;100638.94;4994357;28;20054;-81
2023/07/31 02:20:52;;;;;;;5.20;2.28;;;;;;;15.30;100.00;100638.09;5000962;28;20077;-80
2023/07/31 02:23:21;;;;;;;3.63;2.60;;;;;;;15.30;100.00;100627.47;5047278;28;20057;-79
2023/07/31 02:25:50;;;;;;;2.70;2.50;;;;;;;15.31;100.00;100641.63;5034171;28;20060;-80
2023/07/31 02:28:18;;;;;;;1.88;1.77;;;;;;;15.30;100.00;100626.59;5015164;28;20057;-81
2023/07/31 02:30:48;;;;;;;2.17;1.98;;;;;;;15.28;100.00;100629.28;5027579;28;20045;-79
2023/07/31 02:33:18;;;;;;;2.28;2.17;;;;;;;15.27;100.00;100629.31;5022507;28;20062;-82
2023/07/31 02:35:46;;;;;;;2.85;2.28;;;;;;;15.27;100.00;100624.00;4974670;28;20056;-79
2023/07/31 02:38:14;;;;;;;2.45;2.20;;;;;;;15.28;100.00;100625.75;4995190;28;20060;-81
2023/07/31 02:40:41;;;;;;;3.58;2.22;;;;;;;15.28;100.00;100628.41;5012801;28;20049;-81
2023/07/31 02:43:09;;;;;;;2.03;1.92;;;;;;;15.28;100.00;100631.06;5023148;28;20041;-79
2023/07/31 02:45:36;;;;;;;3.38;2.33;;;;;;;15.26;100.00;100623.13;5030015;28;20090;-79
2023/07/31 02:48:05;;;;;;;2.10;2.00;;;;;;;15.25;100.00;100618.72;5025148;28;20581;-80
2023/07/31 02:50:33;;;;;;;1.98;1.75;;;;;;;15.24;100.00;100629.38;4975139;28;20054;-80
2023/07/31 02:53:00;;;;;;;3.30;1.92;;;;;;;15.21;100.00;100617.03;5008703;28;20068;-80
2023/07/31 02:55:28;;;;;;;1.92;1.73;;;;;;;15.21;100.00;100623.22;5021681;28;20057;-81
2023/07/31 02:57:55;;;;;;;1.70;1.60;;;;;;;15.21;100.00;100619.69;5026872;28;20049;-80
2023/07/31 03:00:25;;;;;;;3.50;1.40;;;;;;;15.21;100.00;100620.56;5003478;28;20046;-79
2023/07/31 03:02:52;;;;;;;1.52;1.38;;;;;;;15.20;100.00;100607.34;5017000;28;20045;-79
2023/07/31 03:05:20;;;;;;;1.60;1.50;;;;;;;15.20;100.00;100607.34;4991459;28;20446;-80
2023/07/31 03:07:48;;;;;;;1.40;1.30;;;;;;;15.19;100.00;100609.09;5019167;28;20057;-79
2023/07/31 03:10:16;;;;;;;1.25;1.15;;;;;;;15.19;100.00;100605.56;5001444;28;20037;-79
2023/07/31 03:12:48;;;;;;;1.00;1.00;;;;;;;15.18;100.00;100612.66;5015574;28;20053;-79
2023/07/31 03:15:17;;;;;;;1.10;1.08;;;;;;;15.17;100.00;100608.25;5011476;28;20033;-79
2023/07/31 03:17:45;;;;;;;1.27;1.10;;;;;;;15.18;100.00;100609.16;5007620;28;20042;-80
2023/07/31 03:20:13;;;;;;;2.47;1.20;;;;;;;15.19;100.00;100605.56;4992125;28;20041;-79
2023/07/31 03:22:42;;;;;;;1.50;1.20;;;;;;;15.20;100.00;100599.38;5007661;28;20435;-78
2023/07/31 03:25:11;;;;;;;1.80;1.70;;;;;;;15.21;100.00;100603.75;5029630;28;20053;-79
2023/07/31 03:27:38;;;;;;;1.00;1.00;;;;;;;15.21;100.00;100604.63;5003815;28;20147;-79
2023/07/31 03:30:06;;;;;;;1.30;1.20;;;;;;;15.21;100.00;100599.31;5021887;28;20050;-80
2023/07/31 03:32:35;;;;;;;3.40;1.45;;;;;;;15.21;100.00;100609.94;5025103;28;20049;-80
2023/07/31 03:35:03;;;;;;;1.98;1.58;;;;;;;15.22;100.00;100602.88;5037770;28;20041;-80
2023/07/31 03:37:30;;;;;;;1.60;1.50;;;;;;;15.23;100.00;100611.69;4992673;28;20062;-80
2023/07/31 03:39:57;;;;;;;1.90;1.73;;;;;;;15.23;100.00;100607.25;5012771;28;20037;-80
2023/07/31 03:42:25;;;;;;;2.13;1.40;;;;;;;15.22;100.00;100602.88;5013303;28;20529;-79
2023/07/31 03:44:53;;;;;;;3.78;1.60;;;;;;;15.23;100.00;100601.09;5019772;28;20038;-79
2023/07/31 03:47:21;;;;;;;2.17;1.15;;;;;;;15.21;100.00;100594.00;5004990;28;20049;-79
2023/07/31 03:49:48;;;;;;;3.28;1.20;;;;;;;15.19;100.00;100600.28;5028247;28;20891;-81
2023/07/31 03:52:16;;;;;;;2.55;1.20;;;;;;;15.20;100.00;100602.03;4986210;28;20049;-80
2023/07/31 03:54:45;;;;;;;1.33;1.15;;;;;;;15.18;100.00;100595.88;5019595;28;20414;-80
2023/07/31 03:57:12;;;;;;;1.10;1.00;;;;;;;15.17;100.00;100600.28;5026423;28;20500;-82
2023/07/31 03:59:39;;;;;;;1.23;1.20;;;;;;;15.18;100.00;100599.41;5016140;28;20049;-80
2023/07/31 04:02:07;;;;;;;0.93;0.85;;;;;;;15.19;100.00;100594.97;4987254;28;20042;-80
2023/07/31 04:04:34;;;;;;;2.65;1.38;;;;;;;15.18;100.00;100583.47;5001242;28;20196;-80
2023/07/31 04:07:02;;;;;;;1.58;1.38;;;;;;;15.19;100.00;100589.66;4982937;28;20491;-81
2023/07/31 04:09:30;;;;;;;1.25;1.15;;;;;;;15.19;100.00;100579.91;5006041;28;20105;-80
2023/07/31 04:11:58;;;;;;;1.45;1.35;;;;;;;15.20;100.00;100583.44;5024250;28;20054;-80
2023/07/31 04:14:26;;;;;;;3.75;1.10;;;;;;;15.20;100.00;100583.44;5020533;28;20064;-80
2023/07/31 04:16:53;;;;;;;2.65;1.20;;;;;;;15.20;100.00;100586.97;5001429;28;20057;-81
2023/07/31 04:19:21;;;;;;;1.27;1.10;;;;;;;15.19;100.00;100582.56;5023003;28;20050;-80
2023/07/31 04:21:49;;;;;;;1.45;1.30;;;;;;;15.19;100.00;100595.81;4971789;28;20034;-81
2023/07/31 04:24:22;;;;;;;2.55;1.38;;;;;;;15.19;100.00;100594.97;4982485;28;20050;-80
2023/07/31 04:26:51;;;;;;;1.60;1.50;;;;;;;15.19;100.00;100587.88;5009933;28;20045;-81
2023/07/31 04:29:19;;;;;;;1.50;1.40;;;;;;;15.19;100.00;100579.91;5015931;28;20053;-79
2023/07/31 04:31:48;;;;;;;2.40;1.77;;;;;;;15.19;100.00;100585.22;5026428;28;20056;-78
2023/07/31 04:34:15;;;;;;;1.70;1.60;;;;;;;15.20;100.00;100575.50;5024781;28;20064;-79
2023/07/31 04:36:43;;;;;;;1.63;1.52;;;;;;;15.22;100.00;100584.28;5028058;28;20049;-81
2023/07/31 04:39:11;;;;;;;4.15;1.50;;;;;;;15.23;100.00;100583.38;4967407;28;20414;-81
2023/07/31 04:41:39;;;;;;;3.25;1.55;;;;;;;15.23;100.00;100580.72;5025418;28;20049;-79
2023/07/31 04:44:07;;;;;;;1.90;1.63;;;;;;;15.24;100.00;100571.88;5005399;28;20057;-79
2023/07/31 04:46:34;;;;;;;4.43;3.40;;;;;;;15.25;100.00;100583.34;5015200;28;20060;-80
2023/07/31 04:49:02;;;;;;;2.97;1.80;;;;;;;15.26;100.00;100582.44;5028027;28;20928;-81
2023/07/31 04:51:30;;;;;;;2.00;1.42;;;;;;;15.27;100.00;100589.50;5034046;28;21003;-80
2023/07/31 04:53:57;;;;;;;2.20;1.40;;;;;;;15.28;100.00;100577.97;4995714;28;20049;-81
2023/07/31 04:56:25;;;;;;;5.03;1.48;;;;;;;15.28;100.00;100589.47;5012595;28;20057;-80
2023/07/31 04:58:53;;;;;;;1.92;1.50;;;;;;;15.27;100.00;100587.72;5039825;28;20053;-80
2023/07/31 05:01:20;;;;;;;1.67;1.50;;;;;;;15.28;100.00;100580.63;5017461;28;20061;-81
2023/07/31 05:03:48;;;;;;;1.55;1.45;;;;;;;15.30;100.00;100576.16;5040436;28;20057;-81
2023/07/31 05:06:15;;;;;;;4.15;1.38;;;;;;;15.30;100.00;100570.88;5000791;28;20062;-81
2023/07/31 05:08:43;;;;;;;1.40;1.20;;;;;;;15.32;100.00;100580.53;5012253;28;20049;-80
2023/07/31 05:11:10;;;;;;;3.67;1.80;;;;;;;15.31;100.00;100572.59;5027174;28;20053;-80
2023/07/31 05:13:38;;;;;;;1.48;1.35;;;;;;;15.33;100.00;100566.38;5019349;28;20045;-80
2023/07/31 05:16:06;;;;;;;5.70;1.92;;;;;;;15.34;100.00;100565.44;5021782;28;20061;-80
2023/07/31 05:18:34;;;;;;;1.77;1.67;;;;;;;15.36;100.00;100562.75;5032972;28;20054;-80
2023/07/31 05:21:02;;;;;;;1.30;1.20;;;;;;;15.38;100.00;100558.28;5009139;28;20434;-80
2023/07/31 05:23:32;;;;;;;2.03;1.40;;;;;;;15.39;100.00;100558.25;4992047;28;20061;-79
2023/07/31 05:26:07;;;;;;;2.70;1.40;;;;;;;15.39;100.00;100549.44;5022645;28;20057;-80
2023/07/31 05:28:36;;;;;;;4.72;1.75;;;;;;;15.42;100.00;100541.38;5013210;28;20056;-81
2023/07/31 05:31:04;;;;;;;2.80;1.02;;;;;;;15.42;100.00;100541.38;5018644;28;20053;-79
2023/07/31 05:33:32;;;;;;;1.30;1.20;;;;;;;15.42;100.00;100549.34;5018182;28;20080;-79
2023/07/31 05:36:00;;;;;;;2.75;1.20;;;;;;;15.43;100.00;100535.19;5024745;28;20050;-81
2023/07/31 05:38:27;;;;;;;1.20;0.90;;;;;;;15.44;100.00;100544.00;5018939;28;20481;-80
2023/07/31 05:40:55;;;;;;;1.55;1.02;;;;;;;15.44;100.00;100542.22;4976391;28;20053;-80
2023/07/31 05:43:22;;;;;;;2.97;1.55;;;;;;;15.46;100.00;100539.53;5026653;28;20057;-82
2023/07/31 05:45:51;;;;;;;1.65;1.40;;;;;;;15.48;100.00;100545.69;5021893;28;20049;-80
2023/07/31 05:48:20;;;;;;;3.17;1.15;;;;;;;15.49;100.00;100529.72;5003265;28;20064;-80
2023/07/31 05:50:48;;;;;;;1.02;1.02;;;;;;;15.51;100.00;100532.34;5018626;28;20042;-80
2023/07/31 05:53:15;;;;;;;1.23;0.90;;;;;;;15.53;100.00;100536.72;5025194;28;20072;-80
2023/07/31 05:55:43;;;;;;;1.88;0.95;;;;;;;15.54;100.00;100542.91;4987704;28;20057;-80
2023/07/31 05:58:10;;;;;;;0.65;0.65;;;;;;;15.56;100.00;100530.47;5036607;28;20057;-81
2023/07/31 06:00:38;;;;;;;1.60;0.70;;;;;;;15.56;100.00;100533.13;5006042;28;20050;-81
2023/07/31 06:03:05;;;;;;;0.80;0.80;;;;;;;15.57;100.00;100537.50;5026344;28;20056;-80
2023/07/31 06:05:32;;;;;;;0.82;0.65;;;;;;;15.56;100.00;100528.69;5026714;28;20483;-79
2023/07/31 06:08:00;;;;;;;1.85;0.73;;;;;;;15.56;100.00;100525.16;5029460;28;20521;-80
2023/07/31 06:10:29;;;;;;;0.77;0.77;;;;;;;15.57;100.00;100524.25;4997479;28;20050;-81
2023/07/31 06:12:57;;;;;;;2.70;0.90;;;;;;;15.58;100.00;100529.53;5012443;28;20049;-80
2023/07/31 06:15:24;;;;;;;1.00;0.55;;;;;;;15.59;100.00;100525.97;5035832;28;20045;-79
2023/07/31 06:17:51;;;;;;;1.70;0.68;;;;;;;15.60;100.00;100527.69;5020426;28;20052;-80
2023/07/31 06:20:20;;;;;;;0.70;0.68;;;;;;;15.62;100.00;100522.38;5025961;28;20053;-80
2023/07/31 06:22:47;;;;;;;0.80;0.65;;;;;;;15.64;100.00;100522.34;5021383;28;20569;-80
2023/07/31 06:25:15;;;;;;;0.50;0.50;;;;;;;15.67;100.00;100522.25;5025144;28;20054;-80
2023/07/31 06:27:45;;;;;;;0.70;0.70;;;;;;;15.66;100.00;100523.16;4993538;28;20053;-82
2023/07/31 06:30:12;;;;;;;1.15;1.10;;;;;;;15.68;100.00;100518.69;5018374;28;20056;-81
2023/07/31 06:32:40;;;;;;;0.70;0.70;;;;;;;15.69;100.00;100513.34;5010585;28;20084;-80
2023/07/31 06:35:09;;;;;;;1.05;0.60;;;;;;;15.70;100.00;100506.25;5008071;28;20041;-82
2023/07/31 06:37:37;;;;;;;0.65;0.65;;;;;;;15.70;100.00;100512.41;5006919;28;20061;-81
2023/07/31 06:40:07;;;;;;;0.88;0.88;;;;;;;15.74;100.00;100505.28;5020996;28;20068;-79
2023/07/31 06:42:35;;;;;;;2.25;0.80;;;;;;;15.76;100.00;100503.47;4973230;28;20065;-80
2023/07/31 06:45:03;;;;;;;0.68;0.68;;;;;;;15.77;100.00;100498.13;5019822;28;20056;-79
2023/07/31 06:47:31;;;;;;;1.88;0.77;;;;;;;15.78;100.00;100501.66;5031963;28;20048;-79
2023/07/31 06:49:59;;;;;;;1.13;0.68;;;;;;;15.79;100.00;100493.66;5026007;28;20042;-79
2023/07/31 06:52:27;;;;;;;1.88;0.80;;;;;;;15.79;100.00;100482.16;5010662;28;20481;-80
2023/07/31 06:55:19;;;;;;;1.23;0.82;;;;;;;15.82;100.00;100475.88;5000117;28;20523;-81
2023/07/31 06:57:48;;;;;;;3.05;1.55;;;;;;;15.85;100.00;100474.03;4984980;28;20763;-80
2023/07/31 07:00:18;;;;;;;1.75;1.55;;;;;;;15.91;100.00;100480.97;5022192;28;20056;-81
2023/07/31 07:02:47;;;;;;;2.23;1.40;;;;;;;15.95;100.00;100470.25;5025265;28;20462;-80
2023/07/31 07:05:16;;;;;;;2.00;1.80;;;;;;;16.01;100.00;100468.31;4991957;28;20057;-80
2023/07/31 07:07:45;;;;;;;4.00;1.95;;;;;;;16.02;100.00;100475.41;5011751;28;20140;-79
2023/07/31 07:10:14;;;;;;;4.50;2.10;;;;;;;16.04;100.00;100460.28;5014165;28;20503;-79
2023/07/31 07:12:41;;;;;;;3.15;1.83;;;;;;;16.07;100.00;100457.56;5017082;28;20053;-79
2023/07/31 07:15:09;;;;;;;8.35;3.00;;;;;;;16.10;100.00;100462.78;4962606;28;20048;-80
2023/07/31 07:17:36;;;;;;;5.82;2.95;;;;;;;16.15;100.00;100459.09;5005556;28;20080;-79
2023/07/31 07:20:04;;;;;;;5.07;3.08;;;;;;;16.20;100.00;100451.00;5020792;28;20116;-79
2023/07/31 07:22:32;;;;;;;9.75;4.05;;;;;;;16.26;100.00;100453.50;5014479;28;20129;-79
2023/07/31 07:24:59;;;;;;;13.00;4.55;;;;;;;16.35;100.00;100441.72;5021249;28;20048;-80
2023/07/31 07:27:27;;;;;;;8.75;3.70;;;;;;;16.38;100.00;100442.53;5018095;28;20044;-81
2023/07/31 07:29:54;;;;;;;10.75;5.20;;;;;;;16.43;100.00;100444.22;4991144;28;20041;-79
2023/07/31 07:32:22;;;;;;;11.98;5.03;;;;;;;16.47;100.00;100441.41;4995766;28;20084;-80
2023/07/31 07:34:50;;;;;;;12.38;5.30;;;;;;;16.55;100.00;100435.88;5032800;28;20054;-81
2023/07/31 07:37:17;;;;;;;15.05;5.72;;;;;;;16.62;100.00;100433.94;5018738;28;20052;-80
2023/07/31 07:39:45;;;;;;;16.33;5.82;;;;;;;16.72;100.00;100430.06;5006774;28;20067;-81
2023/07/31 07:42:13;;;;;;;13.30;5.68;;;;;;;16.74;100.00;100430.91;5002701;28;20045;-79
2023/07/31 07:44:40;;;;;;;13.70;5.80;;;;;;;16.78;100.00;100424.56;4970420;28;20063;-79
2023/07/31 07:47:08;;;;;;;21.38;5.97;;;;;;;16.82;100.00;100428.00;5013661;28;20060;-79
2023/07/31 07:49:35;;;;;;;14.85;5.75;;;;;;;16.84;100.00;100418.22;5023516;28;20053;-80
2023/07/31 07:52:03;;;;;;;20.77;6.68;;;;;;;16.85;100.00;100419.97;5032446;28;20041;-80
2023/07/31 07:54:33;;;;;;;;;;;;;;;16.84;100.00;100415.56;5025532;28;20045;-78
2023/07/31 07:57:03;;;;;;;16.52;6.05;;;;;;;16.84;100.00;100412.91;5016009;28;20396;-79
2023/07/31 07:59:31;;;;;;;26.13;7.97;;;;;;;16.82;100.00;100414.72;4969262;28;20045;-81
2023/07/31 08:01:58;;;;;;;19.00;7.05;;;;;;;16.82;100.00;100417.38;5009189;28;20050;-80
2023/07/31 08:04:26;;;;;;;22.15;7.63;;;;;;;16.82;100.00;100417.38;5019029;28;20054;-81
2023/07/31 08:06:54;;;;;;;22.15;7.25;;;;;;;16.80;100.00;100416.53;5007768;28;20050;-80
2023/07/31 08:09:23;;;;;;;23.42;7.55;;;;;;;16.79;100.00;100406.84;5015553;28;20053;-80
2023/07/31 08:11:52;;;;;;;11.27;5.38;;;;;;;16.76;100.00;100413.09;5024478;28;20057;-79
2023/07/31 08:14:19;;;;;;;10.25;4.90;;;;;;;16.74;100.00;100412.28;4992894;28;20628;-79
2023/07/31 08:16:47;;;;;;;15.18;5.68;;;;;;;16.72;100.00;100398.16;4993601;28;20470;-80
2023/07/31 08:19:14;;;;;;;12.57;3.88;;;;;;;16.70;100.00;100400.84;5020727;28;20046;-79
2023/07/31 08:21:42;;;;;;;8.15;3.20;;;;;;;16.65;100.00;100400.09;5018297;28;20664;-79
2023/07/31 08:24:09;;;;;;;8.93;3.65;;;;;;;16.61;100.00;100392.25;5009032;28;20438;-79
2023/07/31 08:26:37;;;;;;;8.25;3.50;;;;;;;16.60;100.00;100394.06;5008280;28;20054;-81
2023/07/31 08:29:05;;;;;;;5.18;2.83;;;;;;;16.58;100.00;100395.91;5017232;28;20045;-79
2023/07/31 08:31:33;;;;;;;6.35;2.45;;;;;;;16.59;100.00;100392.31;4966772;28;20081;-80
2023/07/31 08:34:00;;;;;;;5.65;2.97;;;;;;;16.59;100.00;100391.44;5024481;28;20049;-79
2023/07/31 08:36:28;;;;;;;3.97;2.35;;;;;;;16.59;100.00;100391.44;5021174;28;20064;-80
2023/07/31 08:38:56;;;;;;;2.10;1.90;;;;;;;16.63;100.00;100379.78;5009573;28;20130;-79
2023/07/31 08:41:25;;;;;;;1.95;1.65;;;;;;;16.66;100.00;100383.22;5005794;28;20411;-80
2023/07/31 08:43:55;;;;;;;2.53;1.67;;;;;;;16.71;100.00;100378.66;5027738;28;20045;-79
2023/07/31 08:46:23;;;;;;;3.40;1.83;;;;;;;16.80;100.00;100384.63;5000299;28;20052;-79
2023/07/31 08:48:52;;;;;;;1.50;1.40;;;;;;;16.85;100.00;100380.94;5025564;28;20379;-80
2023/07/31 08:51:20;;;;;;;4.20;1.88;;;;;;;16.90;100.00;100384.34;5011963;28;20057;-80
2023/07/31 08:53:49;;;;;;;4.15;2.00;;;;;;;16.99;100.00;100385.81;5025503;28;20045;-80
2023/07/31 08:56:18;;;;;;;3.33;2.40;;;;;;;17.08;100.00;100374.03;5015185;28;20054;-79
2023/07/31 08:58:47;;;;;;;2.85;1.80;;;;;;;17.20;100.00;100378.09;5005169;28;20037;-79
2023/07/31 09:01:15;;;;;;;6.00;1.70;;;;;;;17.26;100.00;100372.59;5013550;28;20044;-80
2023/07/31 09:03:44;;;;;;;2.28;1.50;;;;;;;17.34;100.00;100368.75;4967478;28;20053;-79
2023/07/31 09:06:13;;;;;;;2.20;1.77;;;;;;;17.39;100.00;100367.72;5030816;28;20049;-80
2023/07/31 09:08:42;;;;;;;2.08;1.52;;;;;;;17.40;100.00;100364.16;5041021;28;20534;-79
2023/07/31 09:11:10;;;;;;;1.63;1.52;;;;;;;17.44;100.00;100371.13;5021065;28;20049;-80
2023/07/31 09:13:42;;;;;;;3.00;1.58;;;;;;;17.46;100.00;100362.13;4997805;28;20046;-79
2023/07/31 09:16:10;;;;;;;1.60;1.50;;;;;;;17.49;100.00;100356.72;5026373;28;20037;-79
2023/07/31 09:18:58;;;;;;;1.73;1.58;;;;;;;17.51;100.00;100346.88;4987708;28;20558;-79
2023/07/31 09:21:28;;;;;;;1.23;1.13;;;;;;;17.53;100.00;100350.38;5009262;28;20064;-79
2023/07/31 09:24:00;;;;;;;2.88;1.67;;;;;;;17.61;100.00;100351.91;5219338;23;20046;-81
2023/07/31 09:26:36;;;;;;;1.85;1.40;;;;;;;17.57;100.00;100340.47;4958881;28;20062;-81
2023/07/31 09:29:07;;;;;;;1.27;1.17;;;;;;;17.57;100.00;100345.81;4975659;28;20054;-81
2023/07/31 09:31:41;;;;;;;1.48;1.38;;;;;;;17.58;100.00;100344.00;4966882;28;20055;-79
2023/07/31 09:34:10;;;;;;;1.60;1.40;;;;;;;17.59;100.00;100346.63;4946047;28;20051;-80
2023/07/31 09:36:53;;;;;;;1.83;1.20;;;;;;;17.60;100.00;100335.06;4932333;29;20054;-80
2023/07/31 09:39:20;;;;;;;1.95;1.10;;;;;;;17.62;100.00;100337.69;4942917;28;20067;-80
2023/07/31 09:41:54;;;;;;;2.58;1.27;;;;;;;17.66;100.00;100334.84;4967086;28;20141;-80
2023/07/31 09:44:22;;;;;;;1.38;1.27;;;;;;;17.70;100.00;100330.28;4946541;28;20052;-80
2023/07/31 09:46:50;;;;;;;2.80;1.42;;;;;;;17.68;100.00;100337.47;4953724;29;20051;-80
2023/07/31 09:49:17;;;;;;;1.20;1.20;;;;;;;17.61;100.00;100335.91;4920605;28;20062;-80
2023/07/31 09:51:44;;;;;;;2.17;1.30;;;;;;;17.61;100.00;100336.78;4984051;28;20044;-81
2023/07/31 09:54:14;;;;;;;1.83;1.30;;;;;;;17.57;100.00;100323.63;4952210;28;20043;-81
2023/07/31 09:56:47;;;;;;;1.30;1.20;;;;;;;17.58;100.00;100331.56;4967346;28;20043;-80
2023/07/31 09:59:16;;;;;;;1.13;1.02;;;;;;;17.59;100.00;100327.97;4964018;28;20051;-80
2023/07/31 10:01:46;;;;;;;1.15;1.15;;;;;;;17.66;100.00;100318.00;4974753;28;20141;-81
2023/07/31 10:04:14;;;;;;;1.38;1.30;;;;;;;17.71;100.00;100310.69;4910308;28;20051;-82
2023/07/31 10:06:44;;;;;;;1.52;1.15;;;;;;;17.73;100.00;100319.50;4966374;28;20066;-80
2023/07/31 10:09:13;;;;;;;1.37;1.27;;;;;;;17.76;100.00;100316.72;4954266;28;20048;-80
2023/07/31 10:11:51;;;;;;;1.10;0.80;;;;;;;17.82;100.00;100321.84;4957742;28;20055;-81
2023/07/31 10:14:20;;;;;;;1.00;0.98;;;;;;;17.87;100.00;100314.59;4968740;28;20433;-81
2023/07/31 10:16:49;;;;;;;2.42;0.90;;;;;;;17.91;100.00;100313.56;4967288;28;20067;-81
2023/07/31 10:19:18;;;;;;;0.80;0.80;;;;;;;17.96;100.00;100320.50;4944632;28;20049;-81
2023/07/31 10:21:48;;;;;;;0.80;0.80;;;;;;;17.94;100.00;100301.94;4933766;29;20056;-81
2023/07/31 10:24:16;;;;;;;0.77;0.75;;;;;;;18.03;100.00;100301.56;4947349;29;20047;-80
2023/07/31 10:26:45;;;;;;;0.90;0.88;;;;;;;18.09;100.00;100304.03;4944997;28;20397;-81
2023/07/31 10:29:15;;;;;;;1.65;0.80;;;;;;;18.12;100.00;100300.38;4966360;28;20074;-81
2023/07/31 10:31:44;;;;;;;4.50;0.90;;;;;;;18.14;100.00;100295.84;4943802;28;20050;-81
2023/07/31 10:34:11;;;;;;;1.00;0.55;;;;;;;18.15;100.00;100299.38;4893725;28;20046;-80
2023/07/31 10:36:39;;;;;;;0.45;0.45;;;;;;;18.05;100.00;100298.84;4947527;28;20412;-81
2023/07/31 10:39:34;;;;;;;0.88;0.70;;;;;;;17.98;100.00;100302.69;4945159;29;20051;-81
2023/07/31 10:42:13;;;;;;;0.57;0.57;;;;;;;17.96;100.00;100297.41;4943689;28;20070;-81
2023/07/31 10:44:46;;;;;;;0.55;0.55;;;;;;;17.96;100.00;100293.84;4949704;28;20039;-80
2023/07/31 10:47:17;;;;;;;1.38;0.50;;;;;;;17.93;100.00;100295.72;4972093;28;20055;-80
2023/07/31 10:49:46;;;;;;;1.80;0.60;;;;;;;17.88;100.00;100303.03;4911061;28;20420;-81
2023/07/31 10:52:22;;;;;;;1.70;0.40;;;;;;;17.84;100.00;100289.81;4971850;28;20047;-80
2023/07/31 10:55:26;;;;;;;0.75;0.50;;;;;;;17.84;100.00;100296.03;4937778;29;20070;-81
2023/07/31 10:58:12;;;;;;;0.32;0.30;;;;;;;17.87;100.00;100295.94;4953026;28;20508;-82
2023/07/31 11:00:41;;;;;;;0.40;0.40;;;;;;;17.91;100.00;100300.22;4919878;29;20047;-83
2023/07/31 11:03:13;;;;;;;0.40;0.40;;;;;;;17.98;100.00;100308.03;4946575;29;20051;-82
2023/07/31 11:05:53;;;;;;;0.30;0.30;;;;;;;17.99;100.00;100302.63;4925035;28;20294;-81
2023/07/31 11:08:25;;;;;;;0.30;0.30;;;;;;;17.96;100.00;100300.06;4959505;28;20484;-82
2023/07/31 11:11:14;;;;;;;0.30;0.30;;;;;;;17.93;100.00;100301.03;4941052;29;20043;-80
2023/07/31 11:13:43;;;;;;;0.30;0.30;;;;;;;17.95;100.00;100297.47;4941689;29;20047;-82
2023/07/31 11:16:14;;;;;;;0.30;0.30;;;;;;;18.00;100.00;100300.84;4952862;28;20047;-82
2023/07/31 11:18:43;;;;;;;0.20;0.20;;;;;;;18.09;100.00;100296.03;4952216;28;20063;-81
2023/07/31 11:21:14;;;;;;;0.30;0.30;;;;;;;18.24;100.00;100299.03;4925739;28;20385;-81
2023/07/31 11:23:45;;;;;;;0.30;0.30;;;;;;;18.39;100.00;100297.59;4950533;28;20035;-80
2023/07/31 11:26:14;;;;;;;0.57;0.32;;;;;;;18.57;100.00;100301.38;4949259;29;20055;-81